sensor_id;sensor_type;location;lat;lon;timestamp;P1;durP1;ratioP1;P2;durP2;ratioP2
31386;SDS011;69978;50.096;8.448;2023-06-26T00:02:20;2.70;;;1.40;;
31386;SDS011;69978;50.096;8.448;2023-06-26T00:04:46;3.63;;;1.77;;
31386;SDS011;69978;50.096;8.448;2023-06-26T00:07:12;3.50;;;1.88;;
31386;SDS011;69978;50.096;8.448;2023-06-26T00:09:37;3.38;;;1.65;;
31386;SDS011;69978;50.096;8.448;2023-06-26T00:12:03;5.50;;;1.73;;
31386;SDS011;69978;50.096;8.448;2023-06-26T00:14:29;4.97;;;1.98;;
31386;SDS011;69978;50.096;8.448;2023-06-26T00:16:54;3.70;;;1.60;;
31386;SDS011;69978;50.096;8.448;2023-06-26T00:19:20;3.70;;;1.60;;
31386;SDS011;69978;50.096;8.448;2023-06-26T00:21:45;2.40;;;1.75;;
31386;SDS011;69978;50.096;8.448;2023-06-26T00:24:13;3.03;;;1.65;;
31386;SDS011;69978;50.096;8.448;2023-06-26T00:26:39;3.55;;;2.00;;
31386;SDS011;69978;50.096;8.448;2023-06-26T00:29:05;2.67;;;1.70;;
31386;SDS011;69978;50.096;8.448;2023-06-26T00:31:30;2.78;;;1.60;;
31386;SDS011;69978;50.096;8.448;2023-06-26T00:33:56;5.47;;;1.65;;
31386;SDS011;69978;50.096;8.448;2023-06-26T00:36:22;3.88;;;1.60;;
31386;SDS011;69978;50.096;8.448;2023-06-26T00:38:51;3.25;;;1.90;;
31386;SDS011;69978;50.096;8.448;2023-06-26T00:41:17;2.95;;;1.80;;
31386;SDS011;69978;50.096;8.448;2023-06-26T00:43:43;3.30;;;1.67;;
31386;SDS011;69978;50.096;8.448;2023-06-26T00:46:09;3.63;;;1.48;;
31386;SDS011;69978;50.096;8.448;2023-06-26T00:48:36;3.88;;;1.75;;
31386;SDS011;69978;50.096;8.448;2023-06-26T00:51:02;4.65;;;1.77;;
31386;SDS011;69978;50.096;8.448;2023-06-26T00:53:28;4.47;;;1.70;;
31386;SDS011;69978;50.096;8.448;2023-06-26T00:55:55;2.70;;;1.60;;
31386;SDS011;69978;50.096;8.448;2023-06-26T00:58:24;3.75;;;1.83;;
31386;SDS011;69978;50.096;8.448;2023-06-26T01:00:50;2.70;;;1.77;;
31386;SDS011;69978;50.096;8.448;2023-06-26T01:03:17;4.65;;;1.88;;
31386;SDS011;69978;50.096;8.448;2023-06-26T01:05:43;3.35;;;1.90;;
31386;SDS011;69978;50.096;8.448;2023-06-26T01:08:11;3.92;;;1.70;;
31386;SDS011;69978;50.096;8.448;2023-06-26T01:10:37;2.75;;;1.70;;
31386;SDS011;69978;50.096;8.448;2023-06-26T01:13:03;3.38;;;1.80;;
31386;SDS011;69978;50.096;8.448;2023-06-26T01:15:30;4.22;;;1.83;;
31386;SDS011;69978;50.096;8.448;2023-06-26T01:17:55;3.45;;;2.10;;
31386;SDS011;69978;50.096;8.448;2023-06-26T01:20:24;3.05;;;1.90;;
31386;SDS011;69978;50.096;8.448;2023-06-26T01:25:55;2.42;;;1.48;;
31386;SDS011;69978;50.096;8.448;2023-06-26T01:28:43;4.40;;;1.67;;
31386;SDS011;69978;50.096;8.448;2023-06-26T01:31:10;3.13;;;1.90;;
31386;SDS011;69978;50.096;8.448;2023-06-26T01:33:36;2.55;;;1.88;;
31386;SDS011;69978;50.096;8.448;2023-06-26T01:36:03;4.10;;;2.08;;
31386;SDS011;69978;50.096;8.448;2023-06-26T01:38:30;5.38;;;2.00;;
31386;SDS011;69978;50.096;8.448;2023-06-26T01:40:55;3.15;;;1.90;;
31386;SDS011;69978;50.096;8.448;2023-06-26T01:45:51;4.28;;;1.90;;
31386;SDS011;69978;50.096;8.448;2023-06-26T01:48:20;3.30;;;1.90;;
31386;SDS011;69978;50.096;8.448;2023-06-26T01:50:49;3.65;;;1.90;;
31386;SDS011;69978;50.096;8.448;2023-06-26T01:53:17;3.97;;;2.03;;
31386;SDS011;69978;50.096;8.448;2023-06-26T01:55:59;3.53;;;1.95;;
31386;SDS011;69978;50.096;8.448;2023-06-26T01:58:30;3.28;;;1.80;;
31386;SDS011;69978;50.096;8.448;2023-06-26T02:00:58;2.53;;;1.75;;
31386;SDS011;69978;50.096;8.448;2023-06-26T02:03:24;2.45;;;1.65;;
31386;SDS011;69978;50.096;8.448;2023-06-26T02:05:50;4.65;;;1.80;;
31386;SDS011;69978;50.096;8.448;2023-06-26T02:08:16;5.20;;;2.17;;
31386;SDS011;69978;50.096;8.448;2023-06-26T02:10:41;3.05;;;1.85;;
31386;SDS011;69978;50.096;8.448;2023-06-26T02:13:07;2.72;;;1.88;;
31386;SDS011;69978;50.096;8.448;2023-06-26T02:15:32;3.53;;;1.67;;
31386;SDS011;69978;50.096;8.448;2023-06-26T02:17:59;2.97;;;1.90;;
31386;SDS011;69978;50.096;8.448;2023-06-26T02:20:25;4.20;;;2.10;;
31386;SDS011;69978;50.096;8.448;2023-06-26T02:22:50;3.03;;;2.00;;
31386;SDS011;69978;50.096;8.448;2023-06-26T02:25:17;3.17;;;1.95;;
31386;SDS011;69978;50.096;8.448;2023-06-26T02:27:43;3.35;;;2.17;;
31386;SDS011;69978;50.096;8.448;2023-06-26T02:30:08;2.95;;;1.90;;
31386;SDS011;69978;50.096;8.448;2023-06-26T02:32:34;2.75;;;1.63;;
31386;SDS011;69978;50.096;8.448;2023-06-26T02:35:00;2.70;;;1.77;;
31386;SDS011;69978;50.096;8.448;2023-06-26T02:37:26;3.95;;;1.98;;
31386;SDS011;69978;50.096;8.448;2023-06-26T02:39:51;3.90;;;2.00;;
31386;SDS011;69978;50.096;8.448;2023-06-26T02:42:17;2.85;;;1.75;;
31386;SDS011;69978;50.096;8.448;2023-06-26T02:44:42;3.33;;;2.00;;
31386;SDS011;69978;50.096;8.448;2023-06-26T02:47:08;2.70;;;1.83;;
31386;SDS011;69978;50.096;8.448;2023-06-26T02:49:33;3.63;;;2.25;;
31386;SDS011;69978;50.096;8.448;2023-06-26T02:51:59;3.65;;;1.70;;
31386;SDS011;69978;50.096;8.448;2023-06-26T02:54:24;5.78;;;2.30;;
31386;SDS011;69978;50.096;8.448;2023-06-26T02:56:50;3.63;;;2.00;;
31386;SDS011;69978;50.096;8.448;2023-06-26T02:59:15;4.00;;;1.92;;
31386;SDS011;69978;50.096;8.448;2023-06-26T03:01:41;4.30;;;2.10;;
31386;SDS011;69978;50.096;8.448;2023-06-26T03:04:07;5.70;;;2.30;;
31386;SDS011;69978;50.096;8.448;2023-06-26T03:06:33;3.08;;;1.80;;
31386;SDS011;69978;50.096;8.448;2023-06-26T03:08:59;4.10;;;2.03;;
31386;SDS011;69978;50.096;8.448;2023-06-26T03:11:24;6.00;;;1.90;;
31386;SDS011;69978;50.096;8.448;2023-06-26T03:13:50;3.47;;;2.28;;
31386;SDS011;69978;50.096;8.448;2023-06-26T03:16:15;3.58;;;2.10;;
31386;SDS011;69978;50.096;8.448;2023-06-26T03:18:41;3.08;;;1.80;;
31386;SDS011;69978;50.096;8.448;2023-06-26T03:21:06;3.75;;;2.17;;
31386;SDS011;69978;50.096;8.448;2023-06-26T03:23:34;3.85;;;2.05;;
31386;SDS011;69978;50.096;8.448;2023-06-26T03:25:59;4.07;;;1.90;;
31386;SDS011;69978;50.096;8.448;2023-06-26T03:28:25;5.25;;;1.98;;
31386;SDS011;69978;50.096;8.448;2023-06-26T03:30:50;7.00;;;2.28;;
31386;SDS011;69978;50.096;8.448;2023-06-26T03:33:16;4.88;;;2.05;;
31386;SDS011;69978;50.096;8.448;2023-06-26T03:35:41;4.63;;;1.85;;
31386;SDS011;69978;50.096;8.448;2023-06-26T03:38:07;3.90;;;1.75;;
31386;SDS011;69978;50.096;8.448;2023-06-26T03:40:33;5.72;;;2.00;;
31386;SDS011;69978;50.096;8.448;2023-06-26T03:42:58;3.40;;;2.05;;
31386;SDS011;69978;50.096;8.448;2023-06-26T03:45:24;3.63;;;1.95;;
31386;SDS011;69978;50.096;8.448;2023-06-26T03:47:49;3.58;;;1.85;;
31386;SDS011;69978;50.096;8.448;2023-06-26T03:50:18;4.20;;;2.08;;
31386;SDS011;69978;50.096;8.448;2023-06-26T03:52:44;3.88;;;1.73;;
31386;SDS011;69978;50.096;8.448;2023-06-26T03:55:10;5.38;;;2.05;;
31386;SDS011;69978;50.096;8.448;2023-06-26T03:57:36;4.35;;;2.17;;
31386;SDS011;69978;50.096;8.448;2023-06-26T04:00:02;3.28;;;1.77;;
31386;SDS011;69978;50.096;8.448;2023-06-26T04:02:33;4.57;;;1.88;;
31386;SDS011;69978;50.096;8.448;2023-06-26T04:04:59;4.45;;;2.10;;
31386;SDS011;69978;50.096;8.448;2023-06-26T04:07:25;4.20;;;2.25;;
31386;SDS011;69978;50.096;8.448;2023-06-26T04:09:51;4.18;;;1.73;;
31386;SDS011;69978;50.096;8.448;2023-06-26T04:12:17;4.25;;;2.05;;
31386;SDS011;69978;50.096;8.448;2023-06-26T04:14:42;4.20;;;2.22;;
31386;SDS011;69978;50.096;8.448;2023-06-26T04:17:08;4.60;;;2.40;;
31386;SDS011;69978;50.096;8.448;2023-06-26T04:19:33;6.13;;;2.15;;
31386;SDS011;69978;50.096;8.448;2023-06-26T04:22:01;4.57;;;1.95;;
31386;SDS011;69978;50.096;8.448;2023-06-26T04:24:26;6.25;;;2.13;;
31386;SDS011;69978;50.096;8.448;2023-06-26T04:26:52;3.00;;;1.90;;
31386;SDS011;69978;50.096;8.448;2023-06-26T04:29:17;7.97;;;2.25;;
31386;SDS011;69978;50.096;8.448;2023-06-26T04:31:43;2.90;;;1.90;;
31386;SDS011;69978;50.096;8.448;2023-06-26T04:34:11;4.63;;;2.40;;
31386;SDS011;69978;50.096;8.448;2023-06-26T04:36:38;4.13;;;2.10;;
31386;SDS011;69978;50.096;8.448;2023-06-26T04:39:03;3.65;;;2.30;;
31386;SDS011;69978;50.096;8.448;2023-06-26T04:41:29;4.30;;;2.38;;
31386;SDS011;69978;50.096;8.448;2023-06-26T04:43:55;5.03;;;2.53;;
31386;SDS011;69978;50.096;8.448;2023-06-26T04:46:20;4.70;;;2.35;;
31386;SDS011;69978;50.096;8.448;2023-06-26T04:48:46;5.25;;;2.40;;
31386;SDS011;69978;50.096;8.448;2023-06-26T04:51:11;3.75;;;2.40;;
31386;SDS011;69978;50.096;8.448;2023-06-26T04:53:37;4.07;;;2.10;;
31386;SDS011;69978;50.096;8.448;2023-06-26T04:56:03;4.63;;;2.40;;
31386;SDS011;69978;50.096;8.448;2023-06-26T04:58:28;4.30;;;2.40;;
31386;SDS011;69978;50.096;8.448;2023-06-26T05:00:54;4.50;;;2.38;;
31386;SDS011;69978;50.096;8.448;2023-06-26T05:03:19;4.60;;;2.38;;
31386;SDS011;69978;50.096;8.448;2023-06-26T05:05:45;3.10;;;2.10;;
31386;SDS011;69978;50.096;8.448;2023-06-26T05:08:24;3.60;;;2.20;;
31386;SDS011;69978;50.096;8.448;2023-06-26T05:10:51;4.93;;;2.50;;
31386;SDS011;69978;50.096;8.448;2023-06-26T05:13:18;4.30;;;2.40;;
31386;SDS011;69978;50.096;8.448;2023-06-26T05:15:45;3.70;;;2.15;;
31386;SDS011;69978;50.096;8.448;2023-06-26T05:18:11;4.82;;;2.40;;
31386;SDS011;69978;50.096;8.448;2023-06-26T05:20:37;3.47;;;2.28;;
31386;SDS011;69978;50.096;8.448;2023-06-26T05:23:03;6.55;;;2.08;;
31386;SDS011;69978;50.096;8.448;2023-06-26T05:25:30;5.22;;;2.53;;
31386;SDS011;69978;50.096;8.448;2023-06-26T05:27:56;3.75;;;2.22;;
31386;SDS011;69978;50.096;8.448;2023-06-26T05:32:50;6.05;;;2.40;;
31386;SDS011;69978;50.096;8.448;2023-06-26T05:35:17;5.07;;;2.10;;
31386;SDS011;69978;50.096;8.448;2023-06-26T05:37:45;4.78;;;2.38;;
31386;SDS011;69978;50.096;8.448;2023-06-26T05:40:12;5.72;;;2.40;;
31386;SDS011;69978;50.096;8.448;2023-06-26T05:42:39;4.90;;;2.47;;
31386;SDS011;69978;50.096;8.448;2023-06-26T05:45:04;3.90;;;2.40;;
31386;SDS011;69978;50.096;8.448;2023-06-26T05:47:30;3.88;;;2.50;;
31386;SDS011;69978;50.096;8.448;2023-06-26T05:49:56;5.13;;;2.65;;
31386;SDS011;69978;50.096;8.448;2023-06-26T05:52:22;3.90;;;2.33;;
31386;SDS011;69978;50.096;8.448;2023-06-26T05:54:47;7.93;;;2.40;;
31386;SDS011;69978;50.096;8.448;2023-06-26T05:57:13;4.40;;;2.60;;
31386;SDS011;69978;50.096;8.448;2023-06-26T05:59:40;4.28;;;2.25;;
31386;SDS011;69978;50.096;8.448;2023-06-26T06:02:08;4.95;;;2.65;;
31386;SDS011;69978;50.096;8.448;2023-06-26T06:04:34;6.43;;;2.13;;
31386;SDS011;69978;50.096;8.448;2023-06-26T06:07:00;8.00;;;2.20;;
31386;SDS011;69978;50.096;8.448;2023-06-26T06:09:26;6.15;;;2.40;;
31386;SDS011;69978;50.096;8.448;2023-06-26T06:11:51;3.70;;;2.30;;
31386;SDS011;69978;50.096;8.448;2023-06-26T06:14:17;5.90;;;2.15;;
31386;SDS011;69978;50.096;8.448;2023-06-26T06:16:42;8.98;;;2.35;;
31386;SDS011;69978;50.096;8.448;2023-06-26T06:19:08;4.57;;;2.35;;
31386;SDS011;69978;50.096;8.448;2023-06-26T06:21:36;4.88;;;2.40;;
31386;SDS011;69978;50.096;8.448;2023-06-26T06:24:01;4.68;;;2.20;;
31386;SDS011;69978;50.096;8.448;2023-06-26T06:26:28;5.65;;;2.10;;
31386;SDS011;69978;50.096;8.448;2023-06-26T06:28:53;7.43;;;2.35;;
31386;SDS011;69978;50.096;8.448;2023-06-26T06:31:19;5.20;;;2.25;;
31386;SDS011;69978;50.096;8.448;2023-06-26T06:33:45;3.97;;;2.00;;
31386;SDS011;69978;50.096;8.448;2023-06-26T06:36:11;7.35;;;2.45;;
31386;SDS011;69978;50.096;8.448;2023-06-26T06:38:36;4.45;;;2.22;;
31386;SDS011;69978;50.096;8.448;2023-06-26T06:41:02;6.88;;;2.53;;
31386;SDS011;69978;50.096;8.448;2023-06-26T06:43:27;5.78;;;2.20;;
31386;SDS011;69978;50.096;8.448;2023-06-26T06:45:53;3.60;;;2.13;;
31386;SDS011;69978;50.096;8.448;2023-06-26T06:48:18;4.43;;;2.10;;
31386;SDS011;69978;50.096;8.448;2023-06-26T06:50:44;9.57;;;2.20;;
31386;SDS011;69978;50.096;8.448;2023-06-26T06:53:09;6.15;;;2.60;;
31386;SDS011;69978;50.096;8.448;2023-06-26T06:55:35;4.35;;;2.17;;
31386;SDS011;69978;50.096;8.448;2023-06-26T06:58:00;5.53;;;2.33;;
31386;SDS011;69978;50.096;8.448;2023-06-26T07:00:26;6.90;;;2.35;;
31386;SDS011;69978;50.096;8.448;2023-06-26T07:02:52;4.95;;;2.47;;
31386;SDS011;69978;50.096;8.448;2023-06-26T07:05:18;5.60;;;2.60;;
31386;SDS011;69978;50.096;8.448;2023-06-26T07:07:43;5.13;;;2.05;;
31386;SDS011;69978;50.096;8.448;2023-06-26T07:10:10;5.75;;;2.30;;
31386;SDS011;69978;50.096;8.448;2023-06-26T07:12:37;10.02;;;2.08;;
31386;SDS011;69978;50.096;8.448;2023-06-26T07:15:03;5.90;;;2.17;;
31386;SDS011;69978;50.096;8.448;2023-06-26T07:17:30;4.95;;;2.20;;
31386;SDS011;69978;50.096;8.448;2023-06-26T07:19:59;4.32;;;2.30;;
31386;SDS011;69978;50.096;8.448;2023-06-26T07:22:26;5.43;;;2.22;;
31386;SDS011;69978;50.096;8.448;2023-06-26T07:24:51;4.20;;;2.17;;
31386;SDS011;69978;50.096;8.448;2023-06-26T07:27:17;6.32;;;2.40;;
31386;SDS011;69978;50.096;8.448;2023-06-26T07:29:44;5.68;;;2.28;;
31386;SDS011;69978;50.096;8.448;2023-06-26T07:32:10;10.65;;;2.38;;
31386;SDS011;69978;50.096;8.448;2023-06-26T07:34:36;3.53;;;1.88;;
31386;SDS011;69978;50.096;8.448;2023-06-26T07:37:01;5.25;;;2.30;;
31386;SDS011;69978;50.096;8.448;2023-06-26T07:39:27;4.35;;;2.10;;
31386;SDS011;69978;50.096;8.448;2023-06-26T07:41:54;4.32;;;2.38;;
31386;SDS011;69978;50.096;8.448;2023-06-26T07:44:19;5.20;;;1.92;;
31386;SDS011;69978;50.096;8.448;2023-06-26T07:46:45;8.35;;;2.47;;
31386;SDS011;69978;50.096;8.448;2023-06-26T07:49:11;7.93;;;2.28;;
31386;SDS011;69978;50.096;8.448;2023-06-26T07:51:37;7.38;;;2.00;;
31386;SDS011;69978;50.096;8.448;2023-06-26T07:54:02;5.65;;;2.08;;
31386;SDS011;69978;50.096;8.448;2023-06-26T07:56:28;6.72;;;2.20;;
31386;SDS011;69978;50.096;8.448;2023-06-26T07:58:54;8.45;;;2.10;;
31386;SDS011;69978;50.096;8.448;2023-06-26T08:01:19;7.28;;;2.20;;
31386;SDS011;69978;50.096;8.448;2023-06-26T08:03:45;5.72;;;2.20;;
31386;SDS011;69978;50.096;8.448;2023-06-26T08:06:11;3.42;;;1.95;;
31386;SDS011;69978;50.096;8.448;2023-06-26T08:08:36;5.40;;;2.15;;
31386;SDS011;69978;50.096;8.448;2023-06-26T08:11:02;4.82;;;2.13;;
31386;SDS011;69978;50.096;8.448;2023-06-26T08:13:27;11.48;;;2.10;;
31386;SDS011;69978;50.096;8.448;2023-06-26T08:15:53;5.38;;;2.40;;
31386;SDS011;69978;50.096;8.448;2023-06-26T08:18:19;5.82;;;2.55;;
31386;SDS011;69978;50.096;8.448;2023-06-26T08:20:45;4.82;;;2.30;;
31386;SDS011;69978;50.096;8.448;2023-06-26T08:23:10;6.10;;;2.08;;
31386;SDS011;69978;50.096;8.448;2023-06-26T08:25:36;3.70;;;2.00;;
31386;SDS011;69978;50.096;8.448;2023-06-26T08:28:01;2.92;;;1.90;;
31386;SDS011;69978;50.096;8.448;2023-06-26T08:30:28;4.57;;;2.03;;
31386;SDS011;69978;50.096;8.448;2023-06-26T08:32:54;4.43;;;2.10;;
31386;SDS011;69978;50.096;8.448;2023-06-26T08:35:20;6.38;;;2.20;;
31386;SDS011;69978;50.096;8.448;2023-06-26T08:37:46;6.97;;;2.17;;
31386;SDS011;69978;50.096;8.448;2023-06-26T08:40:12;6.72;;;2.05;;
31386;SDS011;69978;50.096;8.448;2023-06-26T08:42:41;5.18;;;2.00;;
31386;SDS011;69978;50.096;8.448;2023-06-26T08:45:07;5.53;;;2.22;;
31386;SDS011;69978;50.096;8.448;2023-06-26T08:47:33;3.72;;;2.17;;
31386;SDS011;69978;50.096;8.448;2023-06-26T08:50:12;2.30;;;2.00;;
31386;SDS011;69978;50.096;8.448;2023-06-26T08:55:20;6.80;;;1.90;;
31386;SDS011;69978;50.096;8.448;2023-06-26T08:57:49;9.35;;;1.95;;
31386;SDS011;69978;50.096;8.448;2023-06-26T09:00:18;6.97;;;2.00;;
31386;SDS011;69978;50.096;8.448;2023-06-26T09:02:45;4.03;;;1.77;;
31386;SDS011;69978;50.096;8.448;2023-06-26T09:05:11;4.28;;;1.90;;
31386;SDS011;69978;50.096;8.448;2023-06-26T09:07:36;7.20;;;2.00;;
31386;SDS011;69978;50.096;8.448;2023-06-26T09:10:02;3.88;;;1.85;;
31386;SDS011;69978;50.096;8.448;2023-06-26T09:12:28;4.00;;;1.77;;
31386;SDS011;69978;50.096;8.448;2023-06-26T09:14:57;3.03;;;1.90;;
31386;SDS011;69978;50.096;8.448;2023-06-26T09:17:29;2.83;;;1.88;;
31386;SDS011;69978;50.096;8.448;2023-06-26T09:19:55;6.28;;;1.90;;
31386;SDS011;69978;50.096;8.448;2023-06-26T09:22:21;2.85;;;1.63;;
31386;SDS011;69978;50.096;8.448;2023-06-26T09:24:47;7.40;;;1.45;;
31386;SDS011;69978;50.096;8.448;2023-06-26T09:27:13;4.97;;;1.67;;
31386;SDS011;69978;50.096;8.448;2023-06-26T09:29:39;5.18;;;1.50;;
31386;SDS011;69978;50.096;8.448;2023-06-26T09:32:05;2.72;;;1.67;;
31386;SDS011;69978;50.096;8.448;2023-06-26T09:34:34;3.85;;;1.50;;
31386;SDS011;69978;50.096;8.448;2023-06-26T09:36:59;3.60;;;1.60;;
31386;SDS011;69978;50.096;8.448;2023-06-26T09:39:29;3.47;;;1.30;;
31386;SDS011;69978;50.096;8.448;2023-06-26T09:41:56;3.85;;;1.40;;
31386;SDS011;69978;50.096;8.448;2023-06-26T09:44:22;2.13;;;1.50;;
31386;SDS011;69978;50.096;8.448;2023-06-26T09:46:48;4.15;;;1.40;;
31386;SDS011;69978;50.096;8.448;2023-06-26T09:49:14;2.17;;;1.65;;
31386;SDS011;69978;50.096;8.448;2023-06-26T09:51:40;3.40;;;1.38;;
31386;SDS011;69978;50.096;8.448;2023-06-26T09:54:07;3.13;;;1.25;;
31386;SDS011;69978;50.096;8.448;2023-06-26T09:56:33;3.05;;;1.55;;
31386;SDS011;69978;50.096;8.448;2023-06-26T09:59:00;5.47;;;1.40;;
31386;SDS011;69978;50.096;8.448;2023-06-26T10:01:28;2.05;;;1.30;;
31386;SDS011;69978;50.096;8.448;2023-06-26T10:03:54;2.15;;;1.30;;
31386;SDS011;69978;50.096;8.448;2023-06-26T10:06:35;1.95;;;1.20;;
31386;SDS011;69978;50.096;8.448;2023-06-26T10:09:03;2.75;;;1.40;;
31386;SDS011;69978;50.096;8.448;2023-06-26T10:12:04;1.73;;;1.20;;
31386;SDS011;69978;50.096;8.448;2023-06-26T10:14:30;5.22;;;1.30;;
31386;SDS011;69978;50.096;8.448;2023-06-26T10:16:59;4.47;;;1.30;;
31386;SDS011;69978;50.096;8.448;2023-06-26T10:19:28;1.85;;;1.30;;
31386;SDS011;69978;50.096;8.448;2023-06-26T10:21:57;3.30;;;1.27;;
31386;SDS011;69978;50.096;8.448;2023-06-26T10:24:26;1.92;;;1.33;;
31386;SDS011;69978;50.096;8.448;2023-06-26T10:26:59;1.88;;;1.13;;
31386;SDS011;69978;50.096;8.448;2023-06-26T10:29:27;3.25;;;1.30;;
31386;SDS011;69978;50.096;8.448;2023-06-26T10:31:55;1.77;;;1.00;;
31386;SDS011;69978;50.096;8.448;2023-06-26T10:34:23;3.40;;;1.20;;
31386;SDS011;69978;50.096;8.448;2023-06-26T10:36:58;6.72;;;1.30;;
31386;SDS011;69978;50.096;8.448;2023-06-26T10:39:25;3.72;;;1.20;;
31386;SDS011;69978;50.096;8.448;2023-06-26T10:41:51;1.83;;;1.17;;
31386;SDS011;69978;50.096;8.448;2023-06-26T10:44:20;1.98;;;1.17;;
31386;SDS011;69978;50.096;8.448;2023-06-26T10:46:52;3.40;;;1.38;;
31386;SDS011;69978;50.096;8.448;2023-06-26T10:49:19;2.10;;;1.20;;
31386;SDS011;69978;50.096;8.448;2023-06-26T10:51:49;3.00;;;1.13;;
31386;SDS011;69978;50.096;8.448;2023-06-26T10:54:16;3.17;;;1.35;;
31386;SDS011;69978;50.096;8.448;2023-06-26T10:59:16;4.15;;;1.30;;
31386;SDS011;69978;50.096;8.448;2023-06-26T11:01:43;3.70;;;1.20;;
31386;SDS011;69978;50.096;8.448;2023-06-26T11:04:12;3.20;;;1.50;;
31386;SDS011;69978;50.096;8.448;2023-06-26T11:06:40;5.15;;;1.20;;
31386;SDS011;69978;50.096;8.448;2023-06-26T11:14:16;2.03;;;1.10;;
31386;SDS011;69978;50.096;8.448;2023-06-26T11:16:46;3.13;;;1.30;;
31386;SDS011;69978;50.096;8.448;2023-06-26T11:19:13;2.72;;;1.10;;
31386;SDS011;69978;50.096;8.448;2023-06-26T11:21:39;1.52;;;1.00;;
31386;SDS011;69978;50.096;8.448;2023-06-26T11:24:08;2.38;;;1.10;;
31386;SDS011;69978;50.096;8.448;2023-06-26T11:26:38;2.35;;;0.90;;
31386;SDS011;69978;50.096;8.448;2023-06-26T11:29:04;4.47;;;1.42;;
31386;SDS011;69978;50.096;8.448;2023-06-26T11:31:31;2.00;;;1.00;;
31386;SDS011;69978;50.096;8.448;2023-06-26T11:33:58;1.90;;;1.08;;
31386;SDS011;69978;50.096;8.448;2023-06-26T11:36:26;4.07;;;1.20;;
31386;SDS011;69978;50.096;8.448;2023-06-26T11:41:21;3.67;;;1.13;;
31386;SDS011;69978;50.096;8.448;2023-06-26T11:44:00;1.60;;;1.05;;
31386;SDS011;69978;50.096;8.448;2023-06-26T11:46:30;6.00;;;1.20;;
31386;SDS011;69978;50.096;8.448;2023-06-26T11:48:56;1.58;;;1.10;;
31386;SDS011;69978;50.096;8.448;2023-06-26T11:51:22;2.40;;;1.10;;
31386;SDS011;69978;50.096;8.448;2023-06-26T11:53:48;3.92;;;1.27;;
31386;SDS011;69978;50.096;8.448;2023-06-26T11:56:15;2.05;;;1.10;;
31386;SDS011;69978;50.096;8.448;2023-06-26T12:01:37;2.88;;;1.10;;
31386;SDS011;69978;50.096;8.448;2023-06-26T12:04:05;3.85;;;1.10;;
31386;SDS011;69978;50.096;8.448;2023-06-26T12:06:33;1.90;;;1.27;;
31386;SDS011;69978;50.096;8.448;2023-06-26T12:09:04;3.78;;;1.35;;
31386;SDS011;69978;50.096;8.448;2023-06-26T12:11:37;1.40;;;1.00;;
31386;SDS011;69978;50.096;8.448;2023-06-26T12:14:05;3.53;;;1.15;;
31386;SDS011;69978;50.096;8.448;2023-06-26T12:16:33;3.40;;;1.27;;
31386;SDS011;69978;50.096;8.448;2023-06-26T12:19:00;3.50;;;1.45;;
31386;SDS011;69978;50.096;8.448;2023-06-26T12:24:07;4.80;;;1.35;;
31386;SDS011;69978;50.096;8.448;2023-06-26T12:26:34;2.80;;;1.20;;
31386;SDS011;69978;50.096;8.448;2023-06-26T12:29:06;2.67;;;1.27;;
31386;SDS011;69978;50.096;8.448;2023-06-26T12:31:39;6.72;;;1.20;;
31386;SDS011;69978;50.096;8.448;2023-06-26T12:34:08;4.55;;;1.65;;
31386;SDS011;69978;50.096;8.448;2023-06-26T12:36:43;3.13;;;1.37;;
31386;SDS011;69978;50.096;8.448;2023-06-26T12:39:11;3.78;;;1.10;;
31386;SDS011;69978;50.096;8.448;2023-06-26T12:41:44;4.38;;;1.20;;
31386;SDS011;69978;50.096;8.448;2023-06-26T12:44:20;3.75;;;1.10;;
31386;SDS011;69978;50.096;8.448;2023-06-26T12:46:48;5.97;;;1.45;;
31386;SDS011;69978;50.096;8.448;2023-06-26T12:49:14;3.42;;;1.20;;
31386;SDS011;69978;50.096;8.448;2023-06-26T12:51:41;3.38;;;1.15;;
31386;SDS011;69978;50.096;8.448;2023-06-26T12:54:08;5.32;;;1.20;;
31386;SDS011;69978;50.096;8.448;2023-06-26T12:56:34;7.22;;;1.13;;
31386;SDS011;69978;50.096;8.448;2023-06-26T12:59:00;3.15;;;1.10;;
31386;SDS011;69978;50.096;8.448;2023-06-26T13:01:26;3.65;;;1.10;;
31386;SDS011;69978;50.096;8.448;2023-06-26T13:03:53;5.22;;;1.25;;
31386;SDS011;69978;50.096;8.448;2023-06-26T13:06:19;3.15;;;1.00;;
31386;SDS011;69978;50.096;8.448;2023-06-26T13:08:45;2.58;;;1.05;;
31386;SDS011;69978;50.096;8.448;2023-06-26T13:11:10;3.08;;;1.10;;
31386;SDS011;69978;50.096;8.448;2023-06-26T13:13:36;4.93;;;0.90;;
31386;SDS011;69978;50.096;8.448;2023-06-26T13:16:04;6.72;;;1.10;;
31386;SDS011;69978;50.096;8.448;2023-06-26T13:18:30;3.03;;;0.85;;
31386;SDS011;69978;50.096;8.448;2023-06-26T13:20:55;5.65;;;1.13;;
31386;SDS011;69978;50.096;8.448;2023-06-26T13:23:21;3.33;;;1.00;;
31386;SDS011;69978;50.096;8.448;2023-06-26T13:25:47;3.97;;;1.00;;
31386;SDS011;69978;50.096;8.448;2023-06-26T13:28:12;1.42;;;0.70;;
31386;SDS011;69978;50.096;8.448;2023-06-26T13:30:38;4.28;;;0.90;;
31386;SDS011;69978;50.096;8.448;2023-06-26T13:33:03;7.03;;;1.08;;
31386;SDS011;69978;50.096;8.448;2023-06-26T13:35:29;5.25;;;0.80;;
31386;SDS011;69978;50.096;8.448;2023-06-26T13:37:54;3.08;;;0.73;;
31386;SDS011;69978;50.096;8.448;2023-06-26T13:40:20;2.45;;;0.90;;
31386;SDS011;69978;50.096;8.448;2023-06-26T13:42:45;3.83;;;0.80;;
31386;SDS011;69978;50.096;8.448;2023-06-26T13:45:11;5.40;;;0.80;;
31386;SDS011;69978;50.096;8.448;2023-06-26T13:47:37;2.10;;;0.80;;
31386;SDS011;69978;50.096;8.448;2023-06-26T13:50:06;3.17;;;0.85;;
31386;SDS011;69978;50.096;8.448;2023-06-26T13:52:35;3.17;;;0.88;;
31386;SDS011;69978;50.096;8.448;2023-06-26T13:55:01;5.38;;;0.80;;
31386;SDS011;69978;50.096;8.448;2023-06-26T13:57:29;3.25;;;0.90;;
31386;SDS011;69978;50.096;8.448;2023-06-26T13:59:55;2.90;;;0.77;;
31386;SDS011;69978;50.096;8.448;2023-06-26T14:02:21;4.47;;;0.70;;
31386;SDS011;69978;50.096;8.448;2023-06-26T14:04:47;5.85;;;0.93;;
31386;SDS011;69978;50.096;8.448;2023-06-26T14:07:13;3.53;;;0.90;;
31386;SDS011;69978;50.096;8.448;2023-06-26T14:09:39;2.50;;;0.63;;
31386;SDS011;69978;50.096;8.448;2023-06-26T14:12:05;4.10;;;0.60;;
31386;SDS011;69978;50.096;8.448;2023-06-26T14:14:32;6.53;;;0.70;;
31386;SDS011;69978;50.096;8.448;2023-06-26T14:16:57;7.40;;;0.70;;
31386;SDS011;69978;50.096;8.448;2023-06-26T14:19:24;2.70;;;0.60;;
31386;SDS011;69978;50.096;8.448;2023-06-26T14:21:50;3.55;;;0.63;;
31386;SDS011;69978;50.096;8.448;2023-06-26T14:24:16;4.20;;;0.82;;
31386;SDS011;69978;50.096;8.448;2023-06-26T14:26:41;2.28;;;0.57;;
31386;SDS011;69978;50.096;8.448;2023-06-26T14:29:07;2.38;;;0.60;;
31386;SDS011;69978;50.096;8.448;2023-06-26T14:31:33;2.88;;;0.70;;
31386;SDS011;69978;50.096;8.448;2023-06-26T14:33:58;5.35;;;0.82;;
31386;SDS011;69978;50.096;8.448;2023-06-26T14:36:24;2.50;;;0.50;;
31386;SDS011;69978;50.096;8.448;2023-06-26T14:38:51;1.08;;;0.38;;
31386;SDS011;69978;50.096;8.448;2023-06-26T14:41:17;2.13;;;0.60;;
31386;SDS011;69978;50.096;8.448;2023-06-26T14:43:42;4.25;;;0.50;;
31386;SDS011;69978;50.096;8.448;2023-06-26T14:46:10;1.60;;;0.50;;
31386;SDS011;69978;50.096;8.448;2023-06-26T14:48:36;1.77;;;0.40;;
31386;SDS011;69978;50.096;8.448;2023-06-26T14:51:01;2.60;;;0.57;;
31386;SDS011;69978;50.096;8.448;2023-06-26T14:53:27;2.25;;;0.50;;
31386;SDS011;69978;50.096;8.448;2023-06-26T14:55:53;5.13;;;0.80;;
31386;SDS011;69978;50.096;8.448;2023-06-26T14:58:18;3.30;;;0.70;;
31386;SDS011;69978;50.096;8.448;2023-06-26T15:00:44;5.72;;;0.40;;
31386;SDS011;69978;50.096;8.448;2023-06-26T15:03:09;3.20;;;0.50;;
31386;SDS011;69978;50.096;8.448;2023-06-26T15:05:35;4.07;;;0.32;;
31386;SDS011;69978;50.096;8.448;2023-06-26T15:08:01;4.03;;;0.70;;
31386;SDS011;69978;50.096;8.448;2023-06-26T15:10:26;6.53;;;0.60;;
31386;SDS011;69978;50.096;8.448;2023-06-26T15:12:52;5.82;;;0.50;;